Time;durP1;ratioP1;P1;durP2;ratioP2;P2;SDS_P1;SDS_P2;PMS_P1;PMS_P2;Temp;Humidity;BMP_temperature;BMP_pressure;BME280_temperature;BME280_humidity;BME280_pressure;Samples;Min_cycle;Max_cycle;Signal;HPM_P1;HPM_P2
2023/05/25 00:01:04;;;;;;;10.90;4.37;;;;;;;-145.18;100.00;46691.66;5031926;28;20037;-64
2023/05/25 00:03:30;;;;;;;12.27;4.57;;;;;;;-145.18;100.00;46699.47;5032692;28;20104;-63
2023/05/25 00:05:56;;;;;;;11.73;4.37;;;;;;;-145.18;100.00;46693.59;5051847;28;20029;-64
2023/05/25 00:08:22;;;;;;;9.37;4.03;;;;;;;-145.18;100.00;46695.56;5051650;28;20281;-63
2023/05/25 00:10:48;;;;;;;14.70;4.20;;;;;;;-145.18;100.00;46683.84;5033647;28;20774;-63
2023/05/25 00:13:13;;;;;;;9.27;3.80;;;;;;;-145.18;100.00;46683.84;5051486;28;20083;-63
2023/05/25 00:15:39;;;;;;;15.80;4.60;;;;;;;-145.18;100.00;46687.75;5033707;28;20033;-63
2023/05/25 00:18:04;;;;;;;12.30;4.70;;;;;;;-145.18;100.00;46685.78;5054269;28;20025;-64
2023/05/25 00:20:31;;;;;;;12.40;4.30;;;;;;;-145.18;100.00;46677.97;5047692;28;20037;-63
2023/05/25 00:22:58;;;;;;;14.47;4.40;;;;;;;-145.18;100.00;46679.94;5035421;28;20040;-64
2023/05/25 00:25:23;;;;;;;10.07;4.13;;;;;;;-145.18;100.00;46681.88;5034870;28;20283;-63
2023/05/25 00:27:48;;;;;;;12.03;5.00;;;;;;;-145.18;100.00;46677.97;5017287;28;20283;-64
2023/05/25 00:30:14;;;;;;;8.50;4.10;;;;;;;-145.18;100.00;46691.66;5039362;28;20041;-64
2023/05/25 00:32:39;;;;;;;12.00;4.60;;;;;;;-145.18;100.00;46683.84;5036583;28;20389;-63
2023/05/25 00:35:06;;;;;;;14.93;4.83;;;;;;;-145.18;100.00;46685.78;5054987;28;20028;-64
2023/05/25 00:37:31;;;;;;;18.93;5.43;;;;;;;-145.18;100.00;46672.13;5036212;28;20103;-64
2023/05/25 00:39:56;;;;;;;14.50;4.57;;;;;;;-145.18;100.00;46677.97;5031618;28;20362;-64
2023/05/25 00:42:23;;;;;;;12.40;4.37;;;;;;;-145.18;100.00;46681.88;5035118;28;20026;-64
2023/05/25 00:44:48;;;;;;;12.10;4.77;;;;;;;-145.18;100.00;46687.75;5034405;28;20147;-64
2023/05/25 00:47:15;;;;;;;13.47;4.73;;;;;;;-145.18;100.00;46676.03;5017310;28;20368;-64
2023/05/25 00:49:40;;;;;;;15.17;4.60;;;;;;;-145.18;100.00;46677.97;5034734;28;20529;-64
2023/05/25 00:52:06;;;;;;;8.00;4.27;;;;;;;-145.18;100.00;46674.06;5035411;28;20254;-64
2023/05/25 00:57:56;;;;;;;9.17;4.13;;;;;;;-145.18;100.00;46672.13;5054432;28;20559;-64
2023/05/25 01:00:22;;;;;;;17.57;4.63;;;;;;;-145.18;100.00;46674.06;5054129;28;20727;-64
2023/05/25 01:02:51;;;;;;;16.40;4.57;;;;;;;-145.18;100.00;46677.97;5054659;28;20300;-64
2023/05/25 01:05:20;;;;;;;16.10;5.10;;;;;;;-145.18;100.00;46668.22;5054551;28;20281;-64
2023/05/25 01:07:46;;;;;;;11.47;4.30;;;;;;;-145.18;100.00;46672.13;5053986;28;20286;-64
2023/05/25 01:10:14;;;;;;;11.43;4.33;;;;;;;-145.18;100.00;46676.03;5039586;28;20267;-64
2023/05/25 01:12:43;;;;;;;9.97;4.47;;;;;;;-145.18;100.00;46679.94;5034282;28;20341;-64
2023/05/25 01:15:09;;;;;;;11.57;4.67;;;;;;;-145.18;100.00;46679.94;5034022;28;20254;-64
2023/05/25 01:17:38;;;;;;;19.13;4.70;;;;;;;-145.18;100.00;46681.88;5034777;28;20266;-64
2023/05/25 01:20:06;;;;;;;14.13;4.60;;;;;;;-145.18;100.00;46685.78;5034022;28;20263;-64
2023/05/25 01:25:50;;;;;;;11.70;4.47;;;;;;;-145.18;100.00;46672.13;5033949;28;20363;-64
2023/05/25 01:28:34;;;;;;;18.07;4.93;;;;;;;-145.18;100.00;46674.06;5033826;28;20282;-64
2023/05/25 01:30:59;;;;;;;12.90;5.33;;;;;;;-145.18;100.00;46676.03;5034009;28;20266;-64
2023/05/25 01:33:26;;;;;;;16.37;5.30;;;;;;;-145.18;100.00;46670.16;5033677;28;20277;-64
2023/05/25 01:35:52;;;;;;;12.23;4.30;;;;;;;-145.18;100.00;46674.06;5034113;28;20450;-64
2023/05/25 01:38:17;;;;;;;12.63;4.60;;;;;;;-145.18;100.00;46672.13;5033995;28;20333;-64
2023/05/25 01:40:43;;;;;;;9.93;4.90;;;;;;;-145.18;100.00;46676.03;5037240;28;20033;-64
2023/05/25 01:43:08;;;;;;;10.67;4.50;;;;;;;-145.18;100.00;46666.25;5033897;28;20025;-64
2023/05/25 01:45:34;;;;;;;13.23;4.40;;;;;;;-145.18;100.00;46670.16;5046861;28;20025;-64
2023/05/25 01:48:12;;;;;;;13.73;5.00;;;;;;;-145.18;100.00;46674.06;5053394;28;20060;-64
2023/05/25 01:50:55;;;;;;;10.10;4.37;;;;;;;-145.18;100.00;46670.16;5044924;28;20061;-64
2023/05/25 01:53:41;;;;;;;14.27;4.97;;;;;;;-145.18;100.00;46670.16;5034174;28;20270;-64
2023/05/25 01:56:10;;;;;;;11.40;4.80;;;;;;;-145.18;100.00;46670.16;5043378;28;20335;-64
2023/05/25 01:58:39;;;;;;;11.07;4.63;;;;;;;-145.18;100.00;46668.22;5053001;28;20040;-64
2023/05/25 02:01:08;;;;;;;11.80;4.50;;;;;;;-145.18;100.00;46674.06;5052804;28;20272;-64
2023/05/25 02:03:34;;;;;;;8.47;4.70;;;;;;;-145.18;100.00;46676.03;5053252;28;20306;-64
2023/05/25 02:05:59;;;;;;;10.13;4.40;;;;;;;-145.18;100.00;46677.97;5053271;28;20349;-64
2023/05/25 02:08:25;;;;;;;9.47;4.30;;;;;;;-145.18;100.00;46668.22;5053154;28;20373;-64
2023/05/25 02:10:50;;;;;;;13.50;4.83;;;;;;;-145.18;100.00;46677.97;5035108;28;20120;-64
2023/05/25 02:13:16;;;;;;;10.40;4.20;;;;;;;-145.18;100.00;46676.03;5018569;28;20482;-64
2023/05/25 02:15:41;;;;;;;12.83;4.43;;;;;;;-145.18;100.00;46672.13;5052762;28;20032;-65
2023/05/25 02:18:07;;;;;;;10.60;4.47;;;;;;;-145.18;100.00;46679.94;5035603;28;20029;-64
2023/05/25 02:20:33;;;;;;;8.67;4.37;;;;;;;-145.18;100.00;46666.25;5015494;28;20368;-64
2023/05/25 02:22:58;;;;;;;11.63;4.77;;;;;;;-145.18;100.00;46674.06;5032811;28;20262;-64
2023/05/25 02:25:23;;;;;;;14.47;4.53;;;;;;;-145.18;100.00;46677.97;5032597;28;20049;-64
2023/05/25 02:27:49;;;;;;;17.90;5.17;;;;;;;-145.18;100.00;46672.13;5032988;28;20079;-65
2023/05/25 02:30:15;;;;;;;10.43;4.73;;;;;;;-145.18;100.00;46677.97;5033163;28;20096;-64
2023/05/25 02:32:40;;;;;;;11.10;4.00;;;;;;;-145.18;100.00;46674.06;5037762;28;20037;-64
2023/05/25 02:35:06;;;;;;;15.93;4.83;;;;;;;-145.18;100.00;46668.22;5052789;28;20033;-64
2023/05/25 02:37:32;;;;;;;12.17;4.97;;;;;;;-145.18;100.00;46672.13;5052853;28;20041;-64
2023/05/25 02:39:57;;;;;;;12.70;5.07;;;;;;;-145.18;100.00;46672.13;5051833;28;20440;-64
2023/05/25 02:42:22;;;;;;;10.47;4.60;;;;;;;-145.18;100.00;46672.13;5051940;28;20028;-64
2023/05/25 02:44:48;;;;;;;10.33;4.87;;;;;;;-145.18;100.00;46674.06;5052237;28;20028;-64
2023/05/25 02:47:17;;;;;;;8.63;4.87;;;;;;;-145.18;100.00;46677.97;5052075;28;20033;-65
2023/05/25 02:49:44;;;;;;;11.90;4.70;;;;;;;-145.18;100.00;46664.31;5038438;28;20399;-64
2023/05/25 02:52:09;;;;;;;14.00;4.57;;;;;;;-145.18;100.00;46668.22;5032629;28;20275;-64
2023/05/25 02:54:35;;;;;;;13.40;4.20;;;;;;;-145.18;100.00;46672.13;5032347;28;20814;-65
2023/05/25 02:57:02;;;;;;;18.77;5.10;;;;;;;-145.18;100.00;46674.06;5032486;28;20040;-65
2023/05/25 02:59:27;;;;;;;14.47;5.20;;;;;;;-145.18;100.00;46666.25;5014996;28;20109;-64
2023/05/25 03:01:53;;;;;;;12.80;4.73;;;;;;;-145.18;100.00;46664.31;5045431;28;20348;-64
2023/05/25 03:04:18;;;;;;;12.80;5.20;;;;;;;-145.18;100.00;46662.34;5051892;28;20037;-64
2023/05/25 03:06:44;;;;;;;9.37;4.13;;;;;;;-145.18;100.00;46668.22;5052444;28;20029;-64
2023/05/25 03:09:09;;;;;;;11.53;4.50;;;;;;;-145.18;100.00;46668.22;5052335;28;20501;-64
2023/05/25 03:11:35;;;;;;;13.40;4.80;;;;;;;-145.18;100.00;46666.25;5052481;28;20025;-64
2023/05/25 03:14:00;;;;;;;14.13;5.10;;;;;;;-145.18;100.00;46658.44;5052276;28;20059;-64
2023/05/25 03:16:26;;;;;;;13.07;4.63;;;;;;;-145.18;100.00;46668.22;5052050;28;20529;-64
2023/05/25 03:18:51;;;;;;;13.57;4.33;;;;;;;-145.18;100.00;46666.25;5033821;28;20021;-64
2023/05/25 03:21:17;;;;;;;10.70;4.83;;;;;;;-145.18;100.00;46666.25;5051495;28;20378;-64
2023/05/25 03:23:42;;;;;;;8.43;4.37;;;;;;;-145.18;100.00;46668.22;5052150;28;20037;-64
2023/05/25 03:26:08;;;;;;;13.87;4.73;;;;;;;-145.18;100.00;46668.22;5051860;28;20053;-65
2023/05/25 03:28:33;;;;;;;13.50;4.47;;;;;;;-145.18;100.00;46662.34;5033819;28;20082;-64
2023/05/25 03:30:58;;;;;;;13.43;4.97;;;;;;;-145.18;100.00;46668.22;5045649;28;20037;-64
2023/05/25 03:33:24;;;;;;;16.80;4.70;;;;;;;-145.18;100.00;46674.06;5031927;28;20120;-65
2023/05/25 03:35:49;;;;;;;17.87;5.13;;;;;;;-145.18;100.00;46666.25;5041989;28;20044;-65
2023/05/25 03:38:15;;;;;;;10.60;4.17;;;;;;;-145.18;100.00;46672.13;5040934;28;20049;-65
2023/05/25 03:40:40;;;;;;;10.87;5.00;;;;;;;-145.18;100.00;46662.34;5022069;28;20438;-65
2023/05/25 03:43:05;;;;;;;13.33;4.87;;;;;;;-145.18;100.00;46668.22;5041442;28;20112;-64
2023/05/25 03:45:31;;;;;;;14.13;4.77;;;;;;;-145.18;100.00;46664.31;5040838;28;20036;-65
2023/05/25 03:47:56;;;;;;;8.53;4.00;;;;;;;-145.18;100.00;46662.34;5040916;28;20033;-64
2023/05/25 03:50:22;;;;;;;11.47;4.20;;;;;;;-145.18;100.00;46664.31;5040940;28;20029;-64
2023/05/25 03:52:47;;;;;;;8.87;3.97;;;;;;;-145.18;100.00;46662.34;5043227;28;20055;-64
2023/05/25 03:55:14;;;;;;;9.73;4.63;;;;;;;-145.18;100.00;46662.34;5046175;28;20021;-65
2023/05/25 03:57:40;;;;;;;10.10;4.53;;;;;;;-145.18;100.00;46670.16;5044140;28;20501;-65
2023/05/25 04:00:07;;;;;;;12.70;4.53;;;;;;;-145.18;100.00;46668.22;5045771;28;20262;-64
2023/05/25 04:02:33;;;;;;;11.13;4.83;;;;;;;-145.18;100.00;46664.31;5041828;28;20357;-64
2023/05/25 04:04:59;;;;;;;12.37;4.50;;;;;;;-145.18;100.00;46668.22;5046295;28;20356;-65
2023/05/25 04:07:26;;;;;;;12.80;4.67;;;;;;;-145.18;100.00;46668.22;5044602;28;20032;-64
2023/05/25 04:09:51;;;;;;;17.40;5.03;;;;;;;-145.18;100.00;46664.31;5043349;28;20052;-65
2023/05/25 04:12:17;;;;;;;15.30;4.47;;;;;;;-145.18;100.00;46666.25;5044806;28;20251;-65
2023/05/25 04:14:42;;;;;;;14.20;4.57;;;;;;;-145.18;100.00;46670.16;5045211;28;20056;-65
2023/05/25 04:17:08;;;;;;;8.77;4.33;;;;;;;-145.18;100.00;46668.22;5027391;28;20033;-65
2023/05/25 04:19:34;;;;;;;11.53;5.20;;;;;;;-145.18;100.00;46668.22;5043340;28;20397;-65
2023/05/25 04:21:59;;;;;;;12.37;4.90;;;;;;;-145.18;100.00;46664.31;5038963;28;20107;-65
2023/05/25 04:24:25;;;;;;;12.23;4.60;;;;;;;-145.18;100.00;46668.22;5035032;28;20061;-65
2023/05/25 04:26:50;;;;;;;11.73;4.63;;;;;;;-145.18;100.00;46660.41;5035410;28;20040;-65
2023/05/25 04:29:16;;;;;;;12.70;5.03;;;;;;;-145.18;100.00;46668.22;5023696;28;20033;-65
2023/05/25 04:31:44;;;;;;;10.70;4.53;;;;;;;-145.18;100.00;46666.25;5055163;28;20402;-65
2023/05/25 04:34:10;;;;;;;9.37;4.37;;;;;;;-145.18;100.00;46668.22;5054831;28;20418;-64
2023/05/25 04:36:37;;;;;;;10.93;4.27;;;;;;;-145.18;100.00;46662.34;5035088;28;20267;-65
2023/05/25 04:39:06;;;;;;;13.10;5.13;;;;;;;-145.18;100.00;46670.16;5035376;28;20047;-65
2023/05/25 04:41:32;;;;;;;11.23;4.70;;;;;;;-145.18;100.00;46668.22;5052684;28;20277;-65
2023/05/25 04:43:58;;;;;;;7.63;4.40;;;;;;;-145.18;100.00;46664.31;5051430;28;20262;-65
2023/05/25 04:46:24;;;;;;;12.80;4.93;;;;;;;-145.18;100.00;46672.13;5034847;28;20270;-65
2023/05/25 04:48:49;;;;;;;19.13;4.83;;;;;;;-145.18;100.00;46676.03;5020671;28;20117;-65
2023/05/25 04:51:15;;;;;;;12.57;5.33;;;;;;;-145.18;100.00;46666.25;5039856;28;20029;-65
2023/05/25 04:53:40;;;;;;;12.83;4.83;;;;;;;-145.18;100.00;46668.22;5038498;28;20029;-65
2023/05/25 04:56:05;;;;;;;12.83;5.47;;;;;;;-145.18;100.00;46674.06;5034359;28;20082;-65
2023/05/25 04:58:32;;;;;;;11.67;4.87;;;;;;;-145.18;100.00;46670.16;5034569;28;20084;-65
2023/05/25 05:00:58;;;;;;;18.63;4.87;;;;;;;-145.18;100.00;46666.25;5033822;28;20060;-65
2023/05/25 05:03:23;;;;;;;14.80;5.63;;;;;;;-145.18;100.00;46664.31;5039131;28;20277;-65
2023/05/25 05:05:49;;;;;;;11.80;4.40;;;;;;;-145.18;100.00;46666.25;5043562;28;20178;-65
2023/05/25 05:08:15;;;;;;;12.50;4.83;;;;;;;-145.18;100.00;46658.44;5040955;28;20021;-65
2023/05/25 05:10:40;;;;;;;12.77;5.23;;;;;;;-145.18;100.00;46664.31;5042888;28;20262;-65
2023/05/25 05:13:05;;;;;;;8.23;4.47;;;;;;;-145.18;100.00;46662.34;5042232;28;20036;-65
2023/05/25 05:15:31;;;;;;;13.83;5.47;;;;;;;-145.18;100.00;46664.31;5025882;28;20455;-65
2023/05/25 05:17:58;;;;;;;9.60;5.13;;;;;;;-145.18;100.00;46664.31;5042117;28;20402;-66
2023/05/25 05:20:23;;;;;;;12.80;4.90;;;;;;;-145.18;100.00;46662.34;5024677;28;20062;-65
2023/05/25 05:22:48;;;;;;;13.00;4.77;;;;;;;-145.18;100.00;46666.25;5043363;28;20266;-65
2023/05/25 05:25:14;;;;;;;15.27;5.60;;;;;;;-145.18;100.00;46662.34;5023651;28;20056;-65
2023/05/25 05:27:39;;;;;;;11.80;4.47;;;;;;;-145.18;100.00;46664.31;5024694;28;20029;-65
2023/05/25 05:30:06;;;;;;;12.03;4.23;;;;;;;-145.18;100.00;46662.34;5042657;28;20025;-65
2023/05/25 05:32:31;;;;;;;13.83;5.40;;;;;;;-145.18;100.00;46662.34;5041482;28;20030;-65
2023/05/25 05:34:57;;;;;;;10.20;4.63;;;;;;;-145.18;100.00;46662.34;5043145;28;20765;-65
2023/05/25 05:37:22;;;;;;;10.97;5.27;;;;;;;-145.18;100.00;46668.22;5042723;28;20025;-66
2023/05/25 05:39:48;;;;;;;15.43;5.00;;;;;;;-145.18;100.00;46668.22;5026480;28;20180;-65
2023/05/25 05:42:13;;;;;;;12.93;4.93;;;;;;;-145.18;100.00;46672.13;5048737;28;20025;-65
2023/05/25 05:44:38;;;;;;;17.13;5.30;;;;;;;-145.18;100.00;46666.25;5017900;28;20018;-65
2023/05/25 05:47:04;;;;;;;8.20;4.17;;;;;;;-145.18;100.00;46668.22;5022801;28;20044;-65
2023/05/25 05:49:30;;;;;;;12.37;4.83;;;;;;;-145.18;100.00;46670.16;5031295;28;20497;-65
2023/05/25 05:51:56;;;;;;;10.93;4.50;;;;;;;-145.18;100.00;46668.22;5039070;28;20051;-66
2023/05/25 05:54:22;;;;;;;13.67;5.57;;;;;;;-145.18;100.00;46672.13;5033681;28;20721;-66
2023/05/25 05:56:47;;;;;;;11.17;5.20;;;;;;;-145.18;100.00;46668.22;5041330;28;20033;-66
2023/05/25 05:59:13;;;;;;;15.67;5.07;;;;;;;-145.18;100.00;46672.13;5017657;28;20026;-66
2023/05/25 06:01:38;;;;;;;12.20;4.63;;;;;;;-145.18;100.00;46668.22;5033150;28;20130;-66
2023/05/25 06:04:07;;;;;;;10.57;5.13;;;;;;;-145.18;100.00;46670.16;5033149;28;20033;-65
2023/05/25 06:06:36;;;;;;;12.00;5.07;;;;;;;-145.18;100.00;46670.16;5032613;28;20022;-65
2023/05/25 06:09:03;;;;;;;10.90;5.17;;;;;;;-145.18;100.00;46672.13;5015420;28;20505;-65
2023/05/25 06:11:30;;;;;;;14.80;5.47;;;;;;;-145.18;100.00;46668.22;5033494;28;20426;-65
2023/05/25 06:13:55;;;;;;;15.30;5.00;;;;;;;-145.18;100.00;46672.13;5036946;28;20099;-65
2023/05/25 06:16:20;;;;;;;11.87;5.00;;;;;;;-145.18;100.00;46676.03;5052458;28;20041;-65
2023/05/25 06:18:46;;;;;;;14.40;4.67;;;;;;;-145.18;100.00;46670.16;5034941;28;20025;-65
2023/05/25 06:21:11;;;;;;;17.50;4.87;;;;;;;-145.18;100.00;46674.06;5052951;28;20032;-65
2023/05/25 06:23:36;;;;;;;14.17;4.87;;;;;;;-145.18;100.00;46676.03;5053037;28;20082;-65
2023/05/25 06:26:04;;;;;;;13.60;5.30;;;;;;;-145.18;100.00;46677.97;5052652;28;20081;-65
2023/05/25 06:28:30;;;;;;;13.10;5.23;;;;;;;-145.18;100.00;46676.03;5048274;28;20033;-65
2023/05/25 06:30:55;;;;;;;19.40;5.60;;;;;;;-145.18;100.00;46677.97;5046463;28;20488;-65
2023/05/25 06:33:21;;;;;;;10.70;5.50;;;;;;;-145.18;100.00;46672.13;5042386;28;20067;-65
2023/05/25 06:35:47;;;;;;;16.27;4.50;;;;;;;-145.18;100.00;46674.06;5030349;28;20032;-65
2023/05/25 06:38:12;;;;;;;11.87;5.43;;;;;;;-145.18;100.00;46674.06;5034692;28;20136;-65
2023/05/25 06:40:37;;;;;;;15.90;5.13;;;;;;;-145.18;100.00;46676.03;5056546;28;20107;-65
2023/05/25 06:43:03;;;;;;;13.00;4.67;;;;;;;-145.18;100.00;46679.94;5035409;28;20029;-65
2023/05/25 06:45:28;;;;;;;10.03;4.77;;;;;;;-145.18;100.00;46679.94;5052490;28;20037;-65
2023/05/25 06:47:54;;;;;;;11.07;4.83;;;;;;;-145.18;100.00;46679.94;5034821;28;20033;-65
2023/05/25 06:50:19;;;;;;;10.60;4.10;;;;;;;-145.18;100.00;46676.03;5052276;28;20044;-65
2023/05/25 06:52:45;;;;;;;9.73;3.80;;;;;;;-145.18;100.00;46677.97;5052391;28;20040;-66
2023/05/25 06:55:11;;;;;;;14.27;4.27;;;;;;;-145.18;100.00;46679.94;5052583;28;20536;-65
2023/05/25 06:57:36;;;;;;;14.60;4.77;;;;;;;-145.18;100.00;46674.06;5052346;28;20537;-65
2023/05/25 07:00:04;;;;;;;9.40;4.07;;;;;;;-145.18;100.00;46666.25;5052578;28;20028;-65
2023/05/25 07:02:30;;;;;;;16.00;3.73;;;;;;;-145.18;100.00;46650.63;5035003;28;20037;-65
2023/05/25 07:04:55;;;;;;;11.60;3.87;;;;;;;-145.18;100.00;46646.72;5057905;28;20477;-65
2023/05/25 07:07:21;;;;;;;8.23;3.23;;;;;;;-145.18;100.00;46601.78;5053859;28;20040;-65
2023/05/25 07:09:46;;;;;;;15.93;3.67;;;;;;;-145.18;100.00;46580.31;5072080;28;20093;-65
2023/05/25 07:12:13;;;;;;;12.27;3.17;;;;;;;-145.18;100.00;46549.06;5067073;28;20108;-65
2023/05/25 07:14:38;;;;;;;12.97;4.23;;;;;;;-145.18;100.00;46549.06;5052269;28;20387;-65
2023/05/25 07:17:04;;;;;;;11.50;3.40;;;;;;;-145.18;100.00;46547.09;5052189;28;20033;-65
2023/05/25 07:19:29;;;;;;;9.67;3.03;;;;;;;-145.18;100.00;46547.09;5052135;28;20367;-65
2023/05/25 07:21:55;;;;;;;11.67;3.40;;;;;;;-145.18;100.00;46552.97;5052037;28;20116;-65
2023/05/25 07:24:20;;;;;;;6.63;2.30;;;;;;;-145.18;100.00;46560.78;5052065;28;20486;-65
2023/05/25 07:26:47;;;;;;;9.17;3.90;;;;;;;-145.18;100.00;46558.81;5054275;28;20051;-66
2023/05/25 07:29:12;;;;;;;12.20;3.40;;;;;;;-145.18;100.00;46558.81;5056314;28;20036;-66
2023/05/25 07:31:37;;;;;;;12.00;3.80;;;;;;;-145.18;100.00;46554.91;5055934;28;20036;-65
2023/05/25 07:34:03;;;;;;;8.90;3.73;;;;;;;-145.18;100.00;46554.91;5056102;28;20033;-65
2023/05/25 07:36:28;;;;;;;17.07;3.87;;;;;;;-145.18;100.00;46562.72;5056228;28;20041;-65
2023/05/25 07:38:54;;;;;;;7.77;3.90;;;;;;;-145.18;100.00;46552.97;5041412;28;20034;-65
2023/05/25 07:41:19;;;;;;;8.00;3.20;;;;;;;-145.18;100.00;46556.88;5036362;28;20041;-65
2023/05/25 07:43:44;;;;;;;10.60;3.70;;;;;;;-145.18;100.00;46552.97;5036233;28;20044;-65
2023/05/25 07:46:10;;;;;;;9.70;3.70;;;;;;;-145.18;100.00;46570.53;5035806;28;20029;-65
2023/05/25 07:48:36;;;;;;;10.33;4.20;;;;;;;-145.18;100.00;46566.63;5035907;28;20079;-65
2023/05/25 07:51:01;;;;;;;13.20;3.83;;;;;;;-145.18;100.00;46572.50;5035898;28;20406;-65
2023/05/25 07:53:27;;;;;;;9.50;3.27;;;;;;;-145.18;100.00;46574.44;5035546;28;20487;-65
2023/05/25 07:55:52;;;;;;;13.73;3.37;;;;;;;-145.18;100.00;46576.41;5035904;28;20107;-65
2023/05/25 07:58:17;;;;;;;11.37;3.73;;;;;;;-145.18;100.00;46584.22;5035878;28;20490;-65
2023/05/25 08:00:43;;;;;;;12.30;3.37;;;;;;;-145.18;100.00;46586.16;5035582;28;20116;-65
2023/05/25 08:03:09;;;;;;;10.53;3.70;;;;;;;-145.18;100.00;46593.97;5035760;28;20041;-65
2023/05/25 08:05:34;;;;;;;10.93;3.70;;;;;;;-145.18;100.00;46590.06;5035783;28;20075;-65
2023/05/25 08:08:00;;;;;;;9.97;3.30;;;;;;;-145.18;100.00;46582.25;5035497;28;20471;-65
2023/05/25 08:10:30;;;;;;;11.00;3.83;;;;;;;-145.18;100.00;46593.97;5035391;28;20034;-65
2023/05/25 08:12:56;;;;;;;13.60;3.67;;;;;;;-145.18;100.00;46609.59;5036719;28;20033;-65
2023/05/25 08:15:22;;;;;;;8.93;3.20;;;;;;;-145.18;100.00;46625.22;5037437;28;20398;-65
2023/05/25 08:17:49;;;;;;;10.60;3.60;;;;;;;-145.18;100.00;46623.28;5035544;28;20029;-65
2023/05/25 08:20:15;;;;;;;13.47;4.03;;;;;;;-145.18;100.00;46656.50;5002027;28;20037;-65
2023/05/25 08:22:42;;;;;;;13.77;3.10;;;;;;;-145.18;100.00;46679.94;5047556;28;20123;-65
2023/05/25 08:25:08;;;;;;;9.00;3.30;;;;;;;-145.18;100.00;46652.59;5069721;28;20056;-64
2023/05/25 08:27:33;;;;;;;9.40;3.57;;;;;;;-145.18;100.00;46652.59;5054673;28;20051;-65
2023/05/25 08:29:59;;;;;;;11.73;3.30;;;;;;;-145.18;100.00;46635.00;5062955;28;20115;-65
2023/05/25 08:32:25;;;;;;;10.40;3.33;;;;;;;-145.18;100.00;46652.59;5044140;28;20036;-65
2023/05/25 08:34:50;;;;;;;8.70;3.30;;;;;;;-145.18;100.00;46674.06;5071471;28;20481;-65
2023/05/25 08:37:16;;;;;;;15.40;3.60;;;;;;;-145.18;100.00;46679.94;5073978;28;20052;-65
2023/05/25 08:39:42;;;;;;;11.43;3.87;;;;;;;-145.18;100.00;46670.16;5067226;28;20037;-65
2023/05/25 08:42:08;;;;;;;9.33;3.40;;;;;;;-145.18;100.00;46670.16;5064504;28;20036;-65
2023/05/25 08:44:36;;;;;;;8.73;3.50;;;;;;;-145.18;100.00;46726.81;5073822;28;20477;-65
2023/05/25 08:47:06;;;;;;;11.10;3.23;;;;;;;-145.18;100.00;46789.31;5071677;28;20029;-65
2023/05/25 08:49:36;;;;;;;9.43;3.00;;;;;;;-145.18;100.00;46857.69;5054227;28;20037;-65
2023/05/25 08:52:02;;;;;;;13.63;4.17;;;;;;;-145.18;100.00;47117.50;5063700;28;20469;-65
2023/05/25 08:54:35;;;;;;;10.53;3.20;;;;;;;-145.18;100.00;47250.34;5074416;28;20059;-65
2023/05/25 08:57:41;;;;;;;9.73;3.27;;;;;;;-145.18;100.00;47299.19;5074428;28;20060;-65
2023/05/25 09:00:10;;;;;;;9.50;3.30;;;;;;;-145.18;100.00;47346.06;5073605;28;20067;-65
2023/05/25 09:03:10;;;;;;;13.70;3.50;;;;;;;-145.18;100.00;47312.88;5059504;28;20052;-65
2023/05/25 09:05:36;;;;;;;9.60;3.37;;;;;;;-145.18;100.00;47363.66;5036345;28;20418;-65
2023/05/25 09:08:08;;;;;;;9.67;3.30;;;;;;;-145.18;100.00;47338.25;5054252;28;20041;-65
2023/05/25 09:10:34;;;;;;;11.53;3.53;;;;;;;-145.18;100.00;47238.63;5053821;28;20499;-65
2023/05/25 09:13:01;;;;;;;9.97;3.30;;;;;;;-145.18;100.00;47340.22;5071207;28;20032;-65
2023/05/25 09:15:26;;;;;;;11.50;4.33;;;;;;;-145.18;100.00;47267.94;5074311;28;20046;-65
2023/05/25 09:17:52;;;;;;;10.50;4.00;;;;;;;-145.18;100.00;47213.22;5073914;28;20028;-65
2023/05/25 09:20:18;;;;;;;11.33;3.73;;;;;;;-145.18;100.00;47324.59;5056027;28;20064;-65
2023/05/25 09:22:45;;;;;;;9.17;3.80;;;;;;;-145.18;100.00;47301.16;5057701;28;20025;-65
2023/05/25 09:25:14;;;;;;;6.97;3.33;;;;;;;-145.18;100.00;47291.38;5072589;28;20064;-65
2023/05/25 09:27:40;;;;;;;12.80;3.83;;;;;;;-145.18;100.00;47293.31;5074014;28;20036;-65
2023/05/25 09:30:06;;;;;;;10.47;3.53;;;;;;;-145.18;100.00;47355.84;5073575;28;20064;-65
2023/05/25 09:32:31;;;;;;;8.57;3.60;;;;;;;-145.18;100.00;47365.63;5046169;28;20046;-65
2023/05/25 09:35:24;;;;;;;11.93;3.90;;;;;;;-145.18;100.00;47346.06;5073737;28;20033;-65
2023/05/25 09:37:53;;;;;;;13.77;4.40;;;;;;;-145.18;100.00;47289.41;5069130;28;20036;-65
2023/05/25 09:40:19;;;;;;;9.83;3.77;;;;;;;-145.18;100.00;47307.00;5073429;28;20485;-65
2023/05/25 09:42:44;;;;;;;7.60;3.40;;;;;;;-145.18;100.00;47295.28;5051846;28;20048;-65
2023/05/25 09:45:09;;;;;;;11.27;3.40;;;;;;;-145.18;100.00;47320.69;5036118;28;20040;-65
2023/05/25 09:47:36;;;;;;;7.27;3.53;;;;;;;-145.18;100.00;47324.59;5033467;28;20033;-65
2023/05/25 09:50:01;;;;;;;10.70;4.07;;;;;;;-145.18;100.00;47338.25;5016023;28;20048;-65
2023/05/25 09:52:27;;;;;;;12.30;4.37;;;;;;;-145.18;100.00;47365.63;5033336;28;20112;-65
2023/05/25 09:54:53;;;;;;;7.07;3.80;;;;;;;-145.18;100.00;47283.56;5033389;28;20056;-65
2023/05/25 09:57:19;;;;;;;10.00;3.73;;;;;;;-145.18;100.00;47277.69;5015794;28;20119;-65
2023/05/25 09:59:45;;;;;;;7.43;3.40;;;;;;;-145.18;100.00;47232.75;5033499;28;20436;-65
2023/05/25 10:02:12;;;;;;;12.17;3.70;;;;;;;-145.18;100.00;47168.28;5015861;28;20470;-65
2023/05/25 10:04:38;;;;;;;7.87;2.70;;;;;;;-145.18;100.00;47150.72;5033112;28;20483;-65
2023/05/25 10:07:04;;;;;;;12.00;2.70;;;;;;;-145.18;100.00;47181.97;5033394;28;20033;-65
2023/05/25 10:09:30;;;;;;;7.40;2.57;;;;;;;-145.18;100.00;47189.78;5033123;28;20033;-65
2023/05/25 10:11:57;;;;;;;5.87;2.30;;;;;;;-145.18;100.00;47191.75;5032874;28;20429;-65
2023/05/25 10:14:26;;;;;;;3.83;2.10;;;;;;;-145.18;100.00;47203.47;5032863;28;20051;-65
2023/05/25 10:16:53;;;;;;;10.73;2.50;;;;;;;-145.18;100.00;47199.56;5032899;28;20079;-65
2023/05/25 10:19:23;;;;;;;6.23;2.53;;;;;;;-145.18;100.00;47213.22;5032485;28;20467;-66
2023/05/25 10:22:06;;;;;;;9.43;2.43;;;;;;;-145.18;100.00;47228.84;5032967;28;20026;-65
2023/05/25 10:24:48;;;;;;;8.00;2.27;;;;;;;-145.18;100.00;47240.56;5033158;28;20036;-65
2023/05/25 10:27:18;;;;;;;6.93;3.10;;;;;;;-145.18;100.00;47250.34;5032613;28;20029;-65
2023/05/25 10:29:46;;;;;;;8.20;2.27;;;;;;;-145.18;100.00;47238.63;5032551;28;20084;-65
2023/05/25 10:32:13;;;;;;;6.37;2.70;;;;;;;-145.18;100.00;47244.50;5032903;28;20029;-65
2023/05/25 10:34:40;;;;;;;8.50;2.63;;;;;;;-145.18;100.00;47228.84;5039947;28;20025;-65
2023/05/25 10:37:07;;;;;;;6.07;2.30;;;;;;;-145.18;100.00;47230.81;5023289;28;20100;-64
2023/05/25 10:39:34;;;;;;;6.50;2.10;;;;;;;-145.18;100.00;47226.91;5032535;28;20086;-65
2023/05/25 10:42:01;;;;;;;8.97;2.63;;;;;;;-145.18;100.00;47183.94;5032753;28;20034;-65
2023/05/25 10:44:28;;;;;;;8.53;2.80;;;;;;;-145.18;100.00;47150.72;5032543;28;20034;-65
2023/05/25 10:46:54;;;;;;;5.47;2.47;;;;;;;-145.18;100.00;47133.13;5032162;28;20500;-65
2023/05/25 10:49:32;;;;;;;5.80;2.47;;;;;;;-145.18;100.00;47117.50;5031256;28;20029;-65
2023/05/25 10:51:59;;;;;;;6.57;2.70;;;;;;;-145.18;100.00;47105.78;5049163;28;20040;-65
2023/05/25 10:54:35;;;;;;;11.00;2.70;;;;;;;-145.18;100.00;47187.84;5052384;28;20406;-65
2023/05/25 10:57:08;;;;;;;6.03;3.10;;;;;;;-145.18;100.00;47127.28;5052403;28;20106;-65
2023/05/25 10:59:33;;;;;;;5.70;2.30;;;;;;;-145.18;100.00;47172.19;5052396;28;20029;-65
2023/05/25 11:02:04;;;;;;;8.80;2.53;;;;;;;-145.18;100.00;47125.31;5051460;28;20124;-65
2023/05/25 11:04:35;;;;;;;6.80;3.10;;;;;;;-145.18;100.00;47109.69;5052329;28;20029;-65
2023/05/25 11:07:01;;;;;;;9.47;2.87;;;;;;;-145.18;100.00;47131.19;5052019;28;20024;-65
2023/05/25 11:09:34;;;;;;;8.60;3.20;;;;;;;-145.18;100.00;47137.03;5052065;28;20032;-65